Time;durP1;ratioP1;P1;durP2;ratioP2;P2;SDS_P1;SDS_P2;PMS_P1;PMS_P2;Temp;Humidity;BMP_temperature;BMP_pressure;BME280_temperature;BME280_humidity;BME280_pressure;Samples;Min_cycle;Max_cycle;Signal;HPM_P1;HPM_P2
2022/01/17 00:01:10;;;;;;;28.93;18.37;;;;;;;-1.36;80.80;99272.77;1632593;87;21117;-81
2022/01/17 00:03:37;;;;;;;38.50;20.20;;;;;;;-1.38;80.91;99268.16;1611937;87;21055;-78
2022/01/17 00:06:03;;;;;;;29.53;19.07;;;;;;;-1.39;80.98;99271.30;1632382;87;21015;-75
2022/01/17 00:08:30;;;;;;;26.03;16.83;;;;;;;-1.42;81.05;99251.91;1632146;87;21571;-75
2022/01/17 00:10:58;;;;;;;25.17;15.10;;;;;;;-1.41;81.17;99242.99;1632451;87;21512;-75
2022/01/17 00:13:29;;;;;;;25.90;15.13;;;;;;;-1.37;81.15;99242.94;1628148;86;21051;-75
2022/01/17 00:15:58;;;;;;;24.30;16.53;;;;;;;-1.34;81.08;99245.20;1653914;86;22057;-75
2022/01/17 00:19:02;;;;;;;29.23;16.87;;;;;;;-1.35;80.97;99243.59;1651684;85;20988;-73
2022/01/17 00:20:56;;;;;;;22.40;13.40;;;;;;;-1.36;80.98;99239.30;1597566;88;21081;-74
2022/01/17 00:23:22;;;;;;;24.33;15.03;;;;;;;-1.36;81.00;99235.84;1581339;90;21416;-79
2022/01/17 00:25:50;;;;;;;24.30;16.53;;;;;;;-1.38;80.95;99228.11;1630515;86;21020;-79
2022/01/17 00:28:16;;;;;;;22.97;13.60;;;;;;;-1.37;80.98;99234.20;1653326;86;21135;-86
2022/01/17 00:30:42;;;;;;;25.20;15.90;;;;;;;-1.42;81.02;99224.71;1652375;86;21079;-88
2022/01/17 00:33:09;;;;;;;25.67;14.43;;;;;;;-1.43;81.07;99225.70;1669741;85;21070;-81
2022/01/17 00:35:36;;;;;;;23.60;14.70;;;;;;;-1.43;81.02;99216.47;1632895;86;20985;-75
2022/01/17 00:38:02;;;;;;;22.07;14.80;;;;;;;-1.41;81.03;99217.12;1659435;86;21008;-79
2022/01/17 00:40:29;;;;;;;30.03;16.70;;;;;;;-1.37;81.03;99217.06;1629669;87;21087;-80
2022/01/17 00:42:55;;;;;;;20.73;12.63;;;;;;;-1.36;80.95;99217.39;1645634;87;21040;-75
2022/01/17 00:45:27;;;;;;;19.10;13.07;;;;;;;-1.34;80.91;99203.49;1645584;86;21093;-77
2022/01/17 00:47:51;;;;;;;27.00;17.33;;;;;;;-1.34;80.77;99188.98;1624800;87;21029;-74
2022/01/17 00:50:17;;;;;;;22.43;14.10;;;;;;;-1.36;80.71;99191.02;1566864;90;21052;-77
2022/01/17 00:52:43;;;;;;;19.73;13.97;;;;;;;-1.32;80.74;99179.08;1630087;86;21033;-77
2022/01/17 00:55:10;;;;;;;30.43;15.30;;;;;;;-1.28;80.64;99172.92;1576803;88;20955;-77
2022/01/17 00:57:36;;;;;;;18.37;13.00;;;;;;;-1.29;80.36;99181.34;1577705;88;21592;-76
2022/01/17 01:00:05;;;;;;;23.13;15.03;;;;;;;-1.31;80.29;99180.72;1625643;85;21093;-78
2022/01/17 01:02:31;;;;;;;27.00;12.77;;;;;;;-1.30;80.27;99169.17;1624974;87;21069;-86
2022/01/17 01:05:00;;;;;;;27.80;15.50;;;;;;;-1.28;80.20;99162.37;1645974;86;21227;-74
2022/01/17 01:07:26;;;;;;;23.70;14.23;;;;;;;-1.24;80.14;99157.86;1624851;87;21060;-74
2022/01/17 01:10:13;;;;;;;21.47;14.27;;;;;;;-1.23;79.88;99159.50;1607699;89;21035;-74
2022/01/17 01:12:21;;;;;;;25.70;14.70;;;;;;;-1.22;79.87;99150.58;1597483;88;21075;-75
2022/01/17 01:14:47;;;;;;;19.33;12.37;;;;;;;-1.19;79.75;99153.33;1601729;88;21549;-74
2022/01/17 01:17:32;;;;;;;24.03;13.80;;;;;;;-1.17;79.62;99152.66;1591059;88;21216;-73
2022/01/17 01:19:43;;;;;;;21.00;13.30;;;;;;;-1.14;79.50;99148.31;1598395;88;21049;-73
2022/01/17 01:27:41;;;;;;;29.40;15.93;;;;;;;-0.99;78.79;99135.88;1623417;88;21110;-78
2022/01/17 01:30:11;;;;;;;23.87;15.83;;;;;;;-0.96;78.54;99132.34;1623436;87;21065;-78
2022/01/17 01:32:44;;;;;;;21.07;14.17;;;;;;;-0.93;78.32;99135.13;1612402;88;21015;-86
2022/01/17 01:35:09;;;;;;;27.40;15.83;;;;;;;-0.90;78.08;99128.14;1592909;88;21565;-85
2022/01/17 01:37:32;;;;;;;24.77;16.00;;;;;;;-0.91;77.63;99131.28;1623050;87;21100;-87
2022/01/17 01:39:59;;;;;;;24.10;16.87;;;;;;;-0.90;77.39;99117.58;1623577;88;21084;-82
2022/01/17 01:42:28;;;;;;;22.63;14.23;;;;;;;-0.85;77.27;99109.09;1623162;88;21048;-78
2022/01/17 01:44:53;;;;;;;21.60;15.07;;;;;;;-0.81;77.16;99109.84;1593223;88;21067;-77
2022/01/17 01:47:22;;;;;;;27.13;14.33;;;;;;;-0.75;76.86;99104.30;1607351;87;21052;-81
2022/01/17 01:49:48;;;;;;;26.97;17.40;;;;;;;-0.70;76.54;99086.06;1670716;85;21115;-84
2022/01/17 01:52:15;;;;;;;22.37;14.33;;;;;;;-0.64;76.38;99085.30;1607967;88;21087;-78
2022/01/17 01:54:41;;;;;;;22.90;12.73;;;;;;;-0.59;76.22;99094.28;1637077;87;21128;-86
2022/01/17 01:57:08;;;;;;;21.93;13.77;;;;;;;-0.54;76.36;99079.17;1593488;89;21003;-91
2022/01/17 01:59:37;;;;;;;25.23;13.83;;;;;;;-0.52;76.84;99094.31;1651206;83;20915;-84
2022/01/17 02:02:04;;;;;;;29.00;16.57;;;;;;;-0.53;77.83;99074.22;1634612;85;21051;-86
2022/01/17 02:04:31;;;;;;;18.90;13.27;;;;;;;-0.55;78.21;99070.94;1625783;86;21031;-87
2022/01/17 02:06:57;;;;;;;26.47;17.00;;;;;;;-0.54;78.57;99063.33;1629226;86;22192;-78
2022/01/17 02:09:24;;;;;;;22.63;15.33;;;;;;;-0.52;78.98;99061.30;1664810;85;21048;-79
2022/01/17 02:11:50;;;;;;;25.33;16.17;;;;;;;-0.46;79.52;99057.88;1681628;85;21067;-78
2022/01/17 02:14:17;;;;;;;31.03;15.47;;;;;;;-0.46;79.90;99042.04;1656140;85;20960;-76
2022/01/17 02:16:45;;;;;;;22.73;15.33;;;;;;;-0.48;80.21;99035.63;1632987;85;21111;-79
2022/01/17 02:19:13;;;;;;;27.90;16.77;;;;;;;-0.45;80.77;99022.05;1656395;85;20956;-91
2022/01/17 02:21:46;;;;;;;22.67;14.13;;;;;;;-0.42;81.07;99010.26;1646183;87;21048;-86
2022/01/17 02:24:16;;;;;;;29.45;16.37;;;;;;;-0.39;81.45;99003.78;1681833;85;21046;-92
2022/01/17 02:26:44;;;;;;;24.70;16.30;;;;;;;-0.39;81.94;98998.50;1681802;85;21083;-83
2022/01/17 02:29:10;;;;;;;24.00;17.43;;;;;;;-0.41;82.19;98992.59;1681302;84;21143;-82
2022/01/17 02:31:38;;;;;;;21.97;15.07;;;;;;;-0.42;82.70;98980.39;1681405;85;21153;-77
2022/01/17 02:34:04;;;;;;;24.93;16.07;;;;;;;-0.42;83.31;98969.82;1681088;84;20963;-76
2022/01/17 02:36:32;;;;;;;25.87;15.17;;;;;;;-0.44;83.48;98948.91;1681364;85;21015;-76
2022/01/17 02:38:59;;;;;;;28.73;15.87;;;;;;;-0.46;83.96;98948.28;1681215;84;20996;-76
2022/01/17 02:41:33;;;;;;;27.63;16.70;;;;;;;-0.53;84.45;98922.37;1681210;85;21052;-75
2022/01/17 02:44:01;;;;;;;28.42;16.85;;;;;;;-0.54;84.69;98907.02;1694671;84;21157;-75
2022/01/17 02:46:27;;;;;;;24.37;16.77;;;;;;;-0.55;84.96;98907.22;1683793;83;21536;-81
2022/01/17 02:48:56;;;;;;;26.53;15.47;;;;;;;-0.56;85.42;98935.44;1709827;84;21087;-82
2022/01/17 02:51:22;;;;;;;25.23;16.53;;;;;;;-0.59;85.67;98931.89;1710263;83;21121;-84
2022/01/17 02:53:50;;;;;;;28.33;15.80;;;;;;;-0.62;85.89;98924.34;1710113;84;20929;-75
2022/01/17 02:56:16;;;;;;;28.43;18.17;;;;;;;-0.67;86.21;98917.52;1712452;80;21961;-86
2022/01/17 02:58:43;;;;;;;29.47;17.93;;;;;;;-0.71;86.47;98916.78;1684365;84;21592;-78
2022/01/17 03:01:19;;;;;;;24.70;15.97;;;;;;;-0.79;86.79;98876.86;1715574;83;20995;-74
2022/01/17 03:03:46;;;;;;;28.67;17.80;;;;;;;-0.79;87.23;98908.53;1719484;83;21007;-78
2022/01/17 03:06:12;;;;;;;30.27;17.43;;;;;;;-0.78;87.44;98919.91;1671783;83;21055;-78
2022/01/17 03:08:40;;;;;;;26.87;15.83;;;;;;;-0.77;87.62;98907.85;1720207;83;21132;-79
2022/01/17 03:11:12;;;;;;;24.97;18.87;;;;;;;-0.70;87.80;98904.72;1720127;83;20909;-81
2022/01/17 03:13:39;;;;;;;23.67;17.10;;;;;;;-0.64;87.85;98890.73;1695911;83;21051;-81
2022/01/17 03:16:10;;;;;;;31.10;18.77;;;;;;;-0.58;88.04;98879.39;1720135;83;21094;-80
2022/01/17 03:18:39;;;;;;;27.37;16.07;;;;;;;-0.58;87.97;98863.55;1677635;83;21091;-79
2022/01/17 03:21:08;;;;;;;26.60;15.80;;;;;;;-0.55;88.03;98859.69;1707461;83;21295;-79
2022/01/17 03:23:35;;;;;;;31.97;18.20;;;;;;;-0.52;88.15;98855.31;1718865;83;21034;-80
2022/01/17 03:26:01;;;;;;;24.33;16.17;;;;;;;-0.55;88.25;98859.18;1718938;83;20998;-81
2022/01/17 03:28:27;;;;;;;36.13;19.73;;;;;;;-0.55;88.29;98849.13;1719719;83;21543;-82
2022/01/17 03:30:53;;;;;;;31.00;15.00;;;;;;;-0.52;88.43;98848.71;1719476;83;21060;-76
2022/01/17 03:33:20;;;;;;;24.70;16.20;;;;;;;-0.52;88.64;98840.79;1694312;83;21111;-77
2022/01/17 03:35:46;;;;;;;29.20;16.67;;;;;;;-0.48;88.64;98840.72;1689951;84;21019;-75
2022/01/17 03:38:16;;;;;;;28.87;17.50;;;;;;;-0.46;88.62;98806.98;1691245;84;21091;-78
2022/01/17 03:40:46;;;;;;;26.07;16.10;;;;;;;-0.42;88.68;98824.05;1667009;84;21321;-75
2022/01/17 03:43:11;;;;;;;29.60;18.83;;;;;;;-0.38;88.66;98820.52;1691249;84;21539;-76
2022/01/17 03:45:37;;;;;;;23.40;16.00;;;;;;;-0.35;88.58;98816.16;1673357;84;21911;-78
2022/01/17 03:48:06;;;;;;;32.07;19.80;;;;;;;-0.35;88.48;98811.69;1692764;83;20948;-76
2022/01/17 03:50:33;;;;;;;30.10;15.87;;;;;;;-0.33;88.39;98802.22;1695950;83;21548;-76
2022/01/17 03:53:00;;;;;;;29.77;17.90;;;;;;;-0.35;88.27;98792.38;1720006;82;20998;-76
2022/01/17 03:55:28;;;;;;;33.00;18.70;;;;;;;-0.31;88.34;98784.35;1719590;83;21056;-75
2022/01/17 03:57:54;;;;;;;28.73;19.30;;;;;;;-0.30;88.22;98781.52;1719794;83;22037;-75
2022/01/17 04:00:27;;;;;;;26.63;18.17;;;;;;;-0.24;88.16;98782.00;1719085;83;21058;-78
2022/01/17 04:02:54;;;;;;;28.98;19.40;;;;;;;-0.24;87.72;98773.30;1683839;83;21043;-75
2022/01/17 04:05:20;;;;;;;34.90;17.93;;;;;;;-0.21;87.71;98765.77;1710198;83;21533;-76
2022/01/17 04:07:48;;;;;;;23.10;16.50;;;;;;;-0.17;87.57;98760.88;1709716;84;21090;-78
2022/01/17 04:10:16;;;;;;;31.43;18.87;;;;;;;-0.15;87.27;98769.43;1709843;84;21886;-75
2022/01/17 04:12:43;;;;;;;30.20;16.53;;;;;;;-0.12;87.09;98764.54;1709110;84;21719;-75
2022/01/17 04:15:11;;;;;;;33.67;16.07;;;;;;;-0.09;86.90;98764.63;1710364;82;21542;-75
2022/01/17 04:17:40;;;;;;;28.70;16.10;;;;;;;-0.07;86.42;98754.17;1709247;82;20993;-75
2022/01/17 04:20:12;;;;;;;26.43;16.47;;;;;;;-0.05;86.25;98748.16;1680721;84;21517;-76
2022/01/17 04:22:43;;;;;;;23.03;15.23;;;;;;;-0.01;85.98;98740.66;1706821;82;21162;-75
2022/01/17 04:25:10;;;;;;;29.33;17.63;;;;;;;0.02;85.83;98746.84;1710290;82;20991;-77
2022/01/17 04:27:37;;;;;;;31.00;17.97;;;;;;;0.07;85.67;98743.07;1731399;82;21054;-79
2022/01/17 04:30:06;;;;;;;25.57;15.37;;;;;;;0.13;85.35;98736.16;1720230;82;21107;-78
2022/01/17 04:32:33;;;;;;;26.30;14.50;;;;;;;0.14;84.77;98716.13;1684232;84;21022;-75
2022/01/17 04:34:59;;;;;;;28.07;17.57;;;;;;;0.15;84.54;98716.92;1683891;84;21139;-78
2022/01/17 04:37:25;;;;;;;34.33;17.07;;;;;;;0.18;84.40;98715.20;1709762;82;21001;-77
2022/01/17 04:39:51;;;;;;;28.63;15.43;;;;;;;0.23;84.18;98722.00;1709795;83;20999;-76
2022/01/17 04:42:25;;;;;;;28.13;15.07;;;;;;;0.29;83.60;98718.51;1707020;83;21007;-76
2022/01/17 04:47:32;;;;;;;24.33;15.57;;;;;;;0.39;82.80;98712.28;1673856;84;21224;-77
2022/01/17 04:49:58;;;;;;;28.57;15.80;;;;;;;0.44;82.21;98711.95;1684489;84;21021;-80
2022/01/17 04:52:26;;;;;;;26.30;14.73;;;;;;;0.49;81.48;98709.19;1677595;84;21037;-77
2022/01/17 04:54:55;;;;;;;21.43;15.50;;;;;;;0.51;79.87;98707.16;1644566;85;21068;-76
2022/01/17 04:57:21;;;;;;;21.87;12.90;;;;;;;0.50;79.77;98708.18;1708436;84;21012;-81
2022/01/17 04:59:49;;;;;;;23.20;12.17;;;;;;;0.51;80.07;98703.20;1683946;84;21189;-78
2022/01/17 05:02:16;;;;;;;18.93;13.13;;;;;;;0.49;80.55;98692.81;1660878;85;21592;-78
2022/01/17 05:04:46;;;;;;;26.20;15.67;;;;;;;0.49;81.04;98687.53;1644930;86;20988;-78
2022/01/17 05:07:14;;;;;;;21.57;13.27;;;;;;;0.48;81.47;98671.34;1662016;85;21043;-81
2022/01/17 05:09:43;;;;;;;24.20;12.27;;;;;;;0.49;82.12;98672.98;1661716;86;21143;-79
2022/01/17 05:12:10;;;;;;;19.00;12.67;;;;;;;0.48;82.67;98659.45;1708500;84;22128;-78
2022/01/17 05:14:43;;;;;;;21.60;13.17;;;;;;;0.44;83.49;98645.84;1683998;84;21509;-78
2022/01/17 05:17:59;;;;;;;24.97;14.57;;;;;;;0.40;83.85;98650.44;1709948;84;21529;-77
2022/01/17 05:19:48;;;;;;;26.40;16.30;;;;;;;0.37;84.50;98647.72;1679640;82;21040;-80
2022/01/17 05:22:16;;;;;;;22.13;12.80;;;;;;;0.35;84.80;98644.97;1659629;84;21003;-79
2022/01/17 05:24:43;;;;;;;21.40;12.10;;;;;;;0.35;85.25;98639.17;1709765;83;21604;-79
2022/01/17 05:27:09;;;;;;;22.93;12.83;;;;;;;0.36;85.89;98632.05;1683763;84;20972;-78
2022/01/17 05:29:35;;;;;;;27.10;13.40;;;;;;;0.37;86.09;98613.34;1659255;84;21036;-80
2022/01/17 05:32:03;;;;;;;22.20;12.70;;;;;;;0.38;86.19;98618.91;1667398;84;21015;-76
2022/01/17 05:34:30;;;;;;;22.70;13.93;;;;;;;0.41;86.33;98624.30;1699637;84;21607;-77
2022/01/17 05:36:56;;;;;;;27.40;12.37;;;;;;;0.39;86.58;98623.69;1683406;84;21593;-76
2022/01/17 05:39:23;;;;;;;23.10;12.70;;;;;;;0.37;86.65;98614.66;1709815;84;21035;-78
2022/01/17 05:41:49;;;;;;;23.10;13.80;;;;;;;0.38;86.90;98618.12;1696098;84;20952;-80
2022/01/17 05:44:15;;;;;;;24.37;14.57;;;;;;;0.39;87.08;98610.47;1681330;84;21604;-76
2022/01/17 05:46:41;;;;;;;26.57;14.70;;;;;;;0.41;87.13;98605.79;1710159;84;21525;-76
2022/01/17 05:49:08;;;;;;;28.70;14.93;;;;;;;0.42;87.34;98600.30;1683279;83;22134;-79
2022/01/17 05:51:34;;;;;;;21.87;12.77;;;;;;;0.46;87.41;98605.16;1677899;83;21560;-77
2022/01/17 05:54:00;;;;;;;18.23;13.50;;;;;;;0.48;87.46;98609.73;1662983;84;21056;-78
2022/01/17 05:56:26;;;;;;;21.13;12.73;;;;;;;0.48;87.48;98594.65;1705720;83;21025;-78
2022/01/17 05:58:53;;;;;;;18.80;13.17;;;;;;;0.51;87.56;98592.11;1644768;86;20979;-77
2022/01/17 06:01:19;;;;;;;17.70;13.33;;;;;;;0.55;87.59;98594.11;1662936;84;21153;-80
2022/01/17 06:03:45;;;;;;;29.77;15.60;;;;;;;0.57;87.63;98585.47;1709965;84;21111;-78
2022/01/17 06:06:12;;;;;;;23.10;14.03;;;;;;;0.58;87.63;98583.61;1709831;83;21048;-78
2022/01/17 06:08:38;;;;;;;21.00;13.33;;;;;;;0.58;87.63;98585.74;1709866;84;20997;-77
2022/01/17 06:11:04;;;;;;;18.30;13.33;;;;;;;0.57;87.72;98585.98;1710226;83;21005;-79
2022/01/17 06:13:31;;;;;;;20.97;14.17;;;;;;;0.56;87.89;98569.80;1708936;83;23487;-80
2022/01/17 06:15:59;;;;;;;28.03;14.43;;;;;;;0.53;87.99;98547.75;1699978;83;21584;-75
2022/01/17 06:18:27;;;;;;;19.90;14.63;;;;;;;0.51;88.26;98551.11;1710103;84;21528;-75
2022/01/17 06:20:53;;;;;;;23.03;14.67;;;;;;;0.55;88.27;98541.21;1710777;84;21112;-77
2022/01/17 06:23:21;;;;;;;23.10;12.83;;;;;;;0.58;88.33;98540.77;1709401;84;21045;-76
2022/01/17 06:25:47;;;;;;;27.40;14.97;;;;;;;0.58;88.39;98538.63;1710840;84;21112;-76
2022/01/17 06:28:14;;;;;;;22.73;14.33;;;;;;;0.57;88.51;98541.00;1710659;83;20921;-76
2022/01/17 06:30:40;;;;;;;23.57;14.53;;;;;;;0.60;88.62;98531.31;1710066;84;21027;-78
2022/01/17 06:33:06;;;;;;;23.83;15.13;;;;;;;0.61;88.67;98521.03;1682784;84;21536;-78
2022/01/17 06:35:33;;;;;;;24.77;14.20;;;;;;;0.66;88.69;98519.88;1684086;84;22191;-74
2022/01/17 06:37:59;;;;;;;26.33;15.33;;;;;;;0.68;88.54;98532.36;1683523;84;21151;-75
2022/01/17 06:40:25;;;;;;;26.63;16.00;;;;;;;0.71;88.49;98515.56;1669686;83;21088;-78
2022/01/17 06:42:52;;;;;;;23.77;15.43;;;;;;;0.75;88.41;98511.46;1662203;86;21049;-77
2022/01/17 06:45:18;;;;;;;26.17;14.00;;;;;;;0.76;88.26;98477.88;1644888;85;21662;-77
2022/01/17 06:47:45;;;;;;;24.87;15.67;;;;;;;0.77;88.17;98456.47;1650803;84;21593;-75
2022/01/17 06:50:11;;;;;;;25.43;14.10;;;;;;;0.79;88.13;98465.52;1683003;84;21075;-78
2022/01/17 06:52:38;;;;;;;27.23;14.93;;;;;;;0.83;88.08;98462.23;1683822;84;21012;-78
2022/01/17 06:55:09;;;;;;;27.87;16.57;;;;;;;0.86;87.94;98435.31;1661684;84;20993;-78
2022/01/17 06:57:35;;;;;;;30.33;16.83;;;;;;;0.89;87.83;98440.70;1711162;83;20937;-78
2022/01/17 07:00:06;;;;;;;30.67;17.63;;;;;;;0.91;87.72;98425.42;1680634;84;21092;-80
2022/01/17 07:02:32;;;;;;;25.43;15.33;;;;;;;0.94;87.67;98452.77;1659844;85;21071;-76
2022/01/17 07:04:59;;;;;;;27.37;16.67;;;;;;;0.97;87.56;98493.34;1693256;83;21069;-75
2022/01/17 07:07:26;;;;;;;24.87;16.03;;;;;;;0.99;87.46;98527.55;1702963;83;22192;-76
2022/01/17 07:09:52;;;;;;;30.80;17.67;;;;;;;1.01;87.40;98514.92;1699310;83;21548;-75
2022/01/17 07:12:20;;;;;;;27.73;17.53;;;;;;;1.04;87.30;98523.73;1725471;83;21470;-75
2022/01/17 07:14:47;;;;;;;26.47;15.63;;;;;;;1.06;87.27;98521.66;1725213;83;21514;-76
2022/01/17 07:17:14;;;;;;;23.37;16.73;;;;;;;1.08;87.08;98502.42;1725359;83;21035;-75
2022/01/17 07:19:40;;;;;;;30.73;15.87;;;;;;;1.09;87.00;98488.16;1723326;83;20989;-76
2022/01/17 07:22:07;;;;;;;22.47;14.97;;;;;;;1.13;87.03;98476.10;1692267;83;21527;-85
2022/01/17 07:24:34;;;;;;;27.87;16.53;;;;;;;1.17;87.00;98439.70;1642196;86;21606;-84
2022/01/17 07:27:00;;;;;;;30.20;17.00;;;;;;;1.20;87.53;98407.47;1663670;86;21143;-88
2022/01/17 07:29:26;;;;;;;27.33;16.27;;;;;;;1.20;87.79;98384.97;1669375;82;20967;-90
2022/01/17 07:31:54;;;;;;;25.97;16.67;;;;;;;1.22;87.80;98354.30;1649030;84;21549;-77
2022/01/17 07:34:20;;;;;;;34.50;19.43;;;;;;;1.21;87.72;98362.76;1675622;85;21019;-80
2022/01/17 07:36:48;;;;;;;37.57;18.97;;;;;;;1.22;87.34;98363.06;1676285;85;21055;-83
2022/01/17 07:39:15;;;;;;;27.43;16.77;;;;;;;1.24;87.08;98368.95;1676358;85;21138;-81
2022/01/17 07:41:41;;;;;;;28.17;17.53;;;;;;;1.27;87.02;98374.30;1676066;84;21023;-82
2022/01/17 07:44:18;;;;;;;29.63;18.57;;;;;;;1.30;86.76;98365.91;1649636;85;20927;-83
2022/01/17 07:46:47;;;;;;;26.97;16.30;;;;;;;1.34;86.64;98368.43;1678793;84;21066;-81
2022/01/17 07:49:10;;;;;;;32.17;15.93;;;;;;;1.29;85.82;98402.20;1674976;85;21020;-82
2022/01/17 07:51:43;;;;;;;30.80;18.00;;;;;;;1.30;85.79;98395.84;1675244;84;21052;-85
2022/01/17 07:54:13;;;;;;;28.95;17.07;;;;;;;1.34;85.77;98410.80;1676120;85;24739;-86
2022/01/17 07:56:40;;;;;;;26.30;16.57;;;;;;;1.38;85.77;98408.00;1648901;87;21113;-83
2022/01/17 07:59:08;;;;;;;28.50;16.87;;;;;;;1.41;85.54;98394.81;1648634;87;21058;-82
2022/01/17 08:01:37;;;;;;;26.53;17.40;;;;;;;1.43;85.42;98378.19;1640601;85;21016;-84
2022/01/17 08:04:05;;;;;;;24.77;16.30;;;;;;;1.46;85.39;98340.14;1695813;84;21159;-84
2022/01/17 08:06:36;;;;;;;28.93;18.27;;;;;;;1.48;85.28;98332.79;1659496;85;21262;-79
2022/01/17 08:09:01;;;;;;;36.23;18.70;;;;;;;1.51;85.02;98375.23;1592187;87;21091;-81
2022/01/17 08:11:30;;;;;;;27.33;17.20;;;;;;;1.53;84.99;98324.17;1645915;85;21652;-80
2022/01/17 08:13:57;;;;;;;27.40;18.63;;;;;;;1.53;84.91;98326.30;1704978;83;21731;-77
2022/01/17 08:16:24;;;;;;;36.20;18.03;;;;;;;1.55;84.83;98343.28;1646830;86;21229;-78
2022/01/17 08:18:52;;;;;;;24.83;14.70;;;;;;;1.55;84.74;98304.86;1647281;87;21053;-78
2022/01/17 08:21:19;;;;;;;25.87;16.23;;;;;;;1.56;84.64;98279.48;1644160;87;21063;-80
2022/01/17 08:23:47;;;;;;;22.57;15.33;;;;;;;1.54;84.57;98293.45;1648324;85;21032;-81
2022/01/17 08:26:17;;;;;;;30.87;20.80;;;;;;;1.56;84.60;98283.45;1658501;85;21477;-81
2022/01/17 08:28:43;;;;;;;32.27;19.80;;;;;;;1.60;84.62;98287.26;1694445;84;21066;-76
2022/01/17 08:31:09;;;;;;;24.00;14.57;;;;;;;1.61;84.54;98305.29;1674953;83;21636;-79
2022/01/17 08:33:38;;;;;;;30.40;19.17;;;;;;;1.63;84.50;98286.80;1648740;85;21128;-78
2022/01/17 08:36:07;;;;;;;26.47;18.13;;;;;;;1.66;84.54;98287.69;1695293;83;21037;-79
2022/01/17 08:38:35;;;;;;;30.03;19.27;;;;;;;1.72;84.51;98266.10;1710484;83;21112;-80
2022/01/17 08:41:05;;;;;;;26.00;17.23;;;;;;;1.74;84.33;98258.71;1718151;82;22184;-81
2022/01/17 08:43:34;;;;;;;31.63;19.33;;;;;;;1.76;84.27;98292.43;1689356;83;21056;-76
2022/01/17 08:46:03;;;;;;;29.53;18.50;;;;;;;1.75;84.24;98251.87;1710243;83;21024;-76
2022/01/17 08:48:29;;;;;;;30.80;19.02;;;;;;;1.75;84.28;98242.59;1711271;83;21022;-73
2022/01/17 08:50:57;;;;;;;25.17;16.97;;;;;;;1.82;84.35;98248.31;1713614;83;21021;-72
2022/01/17 08:53:26;;;;;;;25.37;17.97;;;;;;;1.86;84.30;98257.42;1683606;85;20965;-76
2022/01/17 08:55:53;;;;;;;29.43;19.07;;;;;;;1.90;84.25;98282.42;1700307;83;20935;-75
2022/01/17 08:58:19;;;;;;;28.77;20.12;;;;;;;1.91;84.08;98241.63;1710873;83;21001;-74
2022/01/17 09:00:47;;;;;;;22.52;17.35;;;;;;;1.94;84.12;98245.14;1736138;82;21013;-75
2022/01/17 09:03:15;;;;;;;26.85;18.75;;;;;;;1.95;84.02;98258.17;1716215;82;21136;-77
2022/01/17 09:05:43;;;;;;;28.77;19.35;;;;;;;1.99;84.03;98268.61;1663835;83;21103;-77
2022/01/17 09:08:11;;;;;;;32.10;19.23;;;;;;;2.01;83.97;98245.84;1701782;83;21592;-74
2022/01/17 09:10:38;;;;;;;25.72;17.15;;;;;;;2.01;83.90;98240.03;1664498;86;21074;-75
2022/01/17 09:13:05;;;;;;;31.77;18.12;;;;;;;2.03;83.94;98232.63;1667142;86;21052;-75
2022/01/17 09:15:32;;;;;;;30.70;20.50;;;;;;;2.04;83.91;98229.47;1712064;83;21022;-78
2022/01/17 09:17:59;;;;;;;30.08;18.00;;;;;;;2.03;83.91;98239.27;1675713;85;21165;-78
2022/01/17 09:20:27;;;;;;;26.50;17.32;;;;;;;2.05;83.97;98225.78;1675447;85;21069;-76
2022/01/17 09:22:53;;;;;;;28.38;18.95;;;;;;;2.06;84.02;98208.30;1693613;84;21034;-76
2022/01/17 09:25:19;;;;;;;29.55;18.42;;;;;;;2.08;84.08;98192.98;1675027;85;21024;-77
2022/01/17 09:27:49;;;;;;;33.80;19.23;;;;;;;2.10;84.01;98195.41;1699279;84;21472;-80
2022/01/17 09:30:17;;;;;;;27.70;18.80;;;;;;;2.10;83.99;98178.98;1694313;83;21538;-83
2022/01/17 09:32:43;;;;;;;27.52;15.88;;;;;;;2.09;84.07;98159.32;1645489;85;21035;-76
2022/01/17 09:35:11;;;;;;;28.30;17.37;;;;;;;2.12;84.13;98141.61;1708714;83;21482;-76
2022/01/17 09:37:39;;;;;;;31.73;19.45;;;;;;;2.14;84.13;98139.55;1710940;83;21014;-77
2022/01/17 09:40:08;;;;;;;25.65;17.45;;;;;;;2.17;84.07;98147.83;1709760;83;21025;-76
2022/01/17 09:42:38;;;;;;;27.73;17.37;;;;;;;2.18;83.92;98157.92;1662876;83;21148;-78
2022/01/17 09:45:15;;;;;;;27.30;18.35;;;;;;;2.19;83.87;98123.73;1667770;85;21522;-79
2022/01/17 09:47:44;;;;;;;28.92;18.92;;;;;;;2.23;83.74;98138.66;1626560;85;21010;-77
2022/01/17 09:50:17;;;;;;;30.02;18.70;;;;;;;2.26;83.65;98163.37;1657278;85;21557;-75
2022/01/17 09:52:54;;;;;;;28.80;17.05;;;;;;;2.25;83.47;98155.96;1691471;84;21004;-76
2022/01/17 09:55:26;;;;;;;27.13;18.60;;;;;;;2.27;83.38;98118.06;1680984;83;40929;-77
2022/01/17 09:58:03;;;;;;;28.77;17.70;;;;;;;2.30;83.44;98128.22;1710668;83;21099;-78
2022/01/17 10:00:34;;;;;;;28.57;17.32;;;;;;;2.30;83.25;98124.23;1723666;83;21064;-76
2022/01/17 10:03:05;;;;;;;26.37;17.42;;;;;;;2.30;83.14;98113.63;1669823;86;21080;-82
2022/01/17 10:05:35;;;;;;;27.93;18.93;;;;;;;2.31;82.99;98116.55;1695570;83;21067;-80
2022/01/17 10:08:09;;;;;;;25.23;16.65;;;;;;;2.32;82.95;98146.01;1698446;83;21967;-76
2022/01/17 10:11:05;;;;;;;26.30;17.40;;;;;;;2.32;82.88;98096.94;1675625;84;21030;-78
2022/01/17 10:13:37;;;;;;;32.42;19.15;;;;;;;2.33;82.90;98111.02;1715091;83;20983;-78
2022/01/17 10:16:21;;;;;;;26.75;17.23;;;;;;;2.34;82.89;98114.77;1710523;83;21085;-79
2022/01/17 10:19:03;;;;;;;27.30;17.92;;;;;;;2.34;82.85;98110.78;1703679;83;20920;-78
2022/01/17 10:21:43;;;;;;;24.65;16.95;;;;;;;2.34;82.84;98104.67;1706828;83;22041;-79
2022/01/17 10:24:19;;;;;;;25.62;17.52;;;;;;;2.37;82.94;98088.27;1672723;85;20960;-77
2022/01/17 10:34:57;;;;;;;23.20;17.55;;;;;;;2.43;82.64;98072.75;1701434;83;21183;-78
2022/01/17 10:37:26;;;;;;;25.20;16.23;;;;;;;2.44;82.55;98055.80;1681285;84;21011;-78
2022/01/17 10:40:10;;;;;;;23.57;17.45;;;;;;;2.45;82.49;98057.37;1604532;85;21067;-79
2022/01/17 10:42:48;;;;;;;18.85;13.80;;;;;;;2.43;82.41;98043.05;1676401;84;21150;-78
2022/01/17 10:45:23;;;;;;;24.70;17.05;;;;;;;2.40;82.44;98032.89;1697530;84;21134;-77
2022/01/17 10:47:56;;;;;;;25.72;17.95;;;;;;;2.40;82.46;98011.67;1683979;83;22292;-84
2022/01/17 10:50:37;;;;;;;26.17;17.60;;;;;;;2.41;82.54;98011.96;1707197;83;20972;-79
2022/01/17 10:53:11;;;;;;;27.32;17.73;;;;;;;2.40;82.46;97995.75;1672470;85;20995;-82
2022/01/17 10:55:40;;;;;;;28.90;18.40;;;;;;;2.39;82.43;97993.36;1698271;83;21042;-80
2022/01/17 10:58:26;;;;;;;22.87;14.65;;;;;;;2.42;82.48;97973.78;1671168;85;21072;-79
2022/01/17 11:01:04;;;;;;;23.75;16.95;;;;;;;2.47;82.37;97967.76;1682252;83;21802;-79
2022/01/17 11:03:34;;;;;;;22.90;16.80;;;;;;;2.53;82.16;97953.54;1743727;82;21019;-77
2022/01/17 11:06:12;;;;;;;27.05;18.37;;;;;;;2.59;81.91;97948.06;1703539;83;21035;-79
2022/01/17 11:08:40;;;;;;;24.82;16.48;;;;;;;2.63;81.72;97949.73;1656082;85;21079;-85
2022/01/17 11:11:11;;;;;;;23.07;17.12;;;;;;;2.65;81.45;97935.67;1645571;85;21079;-80
2022/01/17 11:13:48;;;;;;;26.10;17.32;;;;;;;2.68;81.25;97949.81;1702773;83;21101;-83
2022/01/17 11:16:14;;;;;;;21.93;15.45;;;;;;;2.69;80.99;97955.89;1670324;84;21062;-80
2022/01/17 11:18:46;;;;;;;24.80;16.57;;;;;;;2.69;80.69;97935.47;1721063;81;21520;-78
2022/01/17 11:21:16;;;;;;;19.73;13.10;;;;;;;2.67;80.41;97922.98;1693495;84;21552;-78
2022/01/17 11:23:46;;;;;;;21.35;14.78;;;;;;;2.70;80.40;97919.03;1703706;83;21524;-70
2022/01/17 11:26:12;;;;;;;26.25;17.15;;;;;;;2.70;80.39;97949.55;1707494;83;21339;-79
2022/01/17 11:28:39;;;;;;;27.50;17.48;;;;;;;2.73;80.34;97931.31;1700949;83;22227;-80
2022/01/17 11:31:11;;;;;;;20.08;14.13;;;;;;;2.75;80.30;97917.78;1652924;85;21007;-78
2022/01/17 11:33:37;;;;;;;27.48;17.05;;;;;;;2.74;80.23;97907.68;1682573;85;21158;-80
2022/01/17 11:36:05;;;;;;;18.42;15.03;;;;;;;2.73;80.28;97909.27;1682895;83;21306;-79
2022/01/17 11:38:42;;;;;;;21.23;15.78;;;;;;;2.73;80.29;97898.66;1627280;85;21161;-80
2022/01/17 11:41:34;;;;;;;20.82;15.25;;;;;;;2.76;80.35;97900.30;1670885;84;21028;-79
2022/01/17 11:44:06;;;;;;;19.92;15.10;;;;;;;2.79;80.28;97900.31;1678835;85;21024;-80